PWSweather.com
Personal Weather Stations
Station Observations
SHAHALMS1
Eftra, Falkenberg, HA

EftraFalkenberg, HA

Lat: 56.85, Lon: 12.65

Elevation: 140

Station Type:

http://hem.passagen.se/risarp101

High Low Average
Temperature 70.9°F21.6°C 51.3°F10.7°C 58.7°F14.8°C
Dew Point 39.2°F4.0°C 23.2°F-4.9°C 32.9°F0.5°C
Winds 31.3 mph 50.4 kmh 1.4 mph 2.3 kmh 13.0 mph E20.9 kmh E
Wind Gusts 52.3 mph84.2 kmh 5.0 mph8.0 kmh 26.0 mph41.8 kmh
Humidity 54% 31% 38%
Pressure 29.98 in1015.2 mb 29.86 in1011.2 mb -
Precipitation 0.00 in0.0 mm - -
Hour Temp Dew Point Humidity Winds Wind Gusts Pressure Precip Precip Rate Daily Precip Total
12:00 AM 52.5°F11.4°C 23.5°F-4.7°C 32% 11.2 mph E18.0 kmh E 20.4 mph32.8 kmh 29.98 in1015.2 mb 0.00 in0.0 mm 0.00 in0.0 mm 0.00 in0.0 mm
12:15 AM 52.3°F11.3°C 23.3°F-4.8°C 32% 11.2 mph E18.0 kmh E 22.5 mph36.2 kmh 29.98 in1015.2 mb 0.00 in0.0 mm 0.00 in0.0 mm 0.00 in0.0 mm
12:30 AM 52.2°F11.2°C 23.2°F-4.9°C 32% 10.9 mph E17.5 kmh E 24.7 mph39.8 kmh 29.95 in1014.2 mb 0.00 in0.0 mm 0.00 in0.0 mm 0.00 in0.0 mm
12:45 AM 51.8°F11.0°C 23.6°F-4.7°C 33% 11.2 mph E18.0 kmh E 24.3 mph39.1 kmh 29.95 in1014.2 mb 0.00 in0.0 mm 0.00 in0.0 mm 0.00 in0.0 mm
01:00 AM 52.0°F11.1°C 24.4°F-4.2°C 34% 10.1 mph E16.3 kmh E 21.1 mph34.0 kmh 29.95 in1014.2 mb 0.00 in0.0 mm 0.00 in0.0 mm 0.00 in0.0 mm
01:15 AM 52.0°F11.1°C 24.4°F-4.2°C 34% 11.2 mph E18.0 kmh E 20.8 mph33.5 kmh 29.92 in1013.2 mb 0.00 in0.0 mm 0.00 in0.0 mm 0.00 in0.0 mm
01:30 AM 52.0°F11.1°C 24.4°F-4.2°C 34% 11.4 mph E18.3 kmh E 19.3 mph31.1 kmh 29.95 in1014.2 mb 0.00 in0.0 mm 0.00 in0.0 mm 0.00 in0.0 mm
01:45 AM 51.8°F11.0°C 25.0°F-3.9°C 35% 11.3 mph E18.2 kmh E 20.8 mph33.5 kmh 29.92 in1013.2 mb 0.00 in0.0 mm 0.00 in0.0 mm 0.00 in0.0 mm
02:00 AM 51.6°F10.9°C 24.8°F-4.0°C 35% 10.9 mph E17.5 kmh E 24.3 mph39.1 kmh 29.95 in1014.2 mb 0.00 in0.0 mm 0.00 in0.0 mm 0.00 in0.0 mm
02:15 AM 51.4°F10.8°C 25.3°F-3.7°C 36% 11.1 mph E17.9 kmh E 23.6 mph38.0 kmh 29.95 in1014.2 mb 0.00 in0.0 mm 0.00 in0.0 mm 0.00 in0.0 mm
02:30 AM 51.6°F10.9°C 25.5°F-3.6°C 36% 13.5 mph E21.7 kmh E 36.5 mph58.7 kmh 29.95 in1014.2 mb 0.00 in0.0 mm 0.00 in0.0 mm 0.00 in0.0 mm
02:45 AM 51.4°F10.8°C 26.0°F-3.3°C 37% 11.6 mph E18.7 kmh E 21.8 mph35.1 kmh 29.95 in1014.2 mb 0.00 in0.0 mm 0.00 in0.0 mm 0.00 in0.0 mm
03:01 AM 51.4°F10.8°C 26.0°F-3.3°C 37% 13.2 mph E21.2 kmh E 24.3 mph39.1 kmh 29.92 in1013.2 mb 0.00 in0.0 mm 0.00 in0.0 mm 0.00 in0.0 mm
03:15 AM 51.3°F10.7°C 26.5°F-3.1°C 38% 13.6 mph E21.9 kmh E 25.8 mph41.5 kmh 29.92 in1013.2 mb 0.00 in0.0 mm 0.00 in0.0 mm 0.00 in0.0 mm
03:30 AM 51.3°F10.7°C 26.5°F-3.1°C 38% 12.8 mph E20.6 kmh E 24.3 mph39.1 kmh 29.92 in1013.2 mb 0.00 in0.0 mm 0.00 in0.0 mm 0.00 in0.0 mm
03:45 AM 51.4°F10.8°C 26.6°F-3.0°C 38% 14.9 mph E24.0 kmh E 28.6 mph46.0 kmh 29.92 in1013.2 mb 0.00 in0.0 mm 0.00 in0.0 mm 0.00 in0.0 mm
04:00 AM 51.6°F10.9°C 26.8°F-2.9°C 38% 12.1 mph E19.5 kmh E 24.7 mph39.8 kmh 29.92 in1013.2 mb 0.00 in0.0 mm 0.00 in0.0 mm 0.00 in0.0 mm
04:15 AM 51.6°F10.9°C 26.8°F-2.9°C 38% 13.8 mph E22.2 kmh E 24.3 mph39.1 kmh 29.92 in1013.2 mb 0.00 in0.0 mm 0.00 in0.0 mm 0.00 in0.0 mm
04:30 AM 51.8°F11.0°C 27.6°F-2.4°C 39% 12.1 mph E19.5 kmh E 23.6 mph38.0 kmh 29.92 in1013.2 mb 0.00 in0.0 mm 0.00 in0.0 mm 0.00 in0.0 mm
04:45 AM 51.4°F10.8°C 27.3°F-2.6°C 39% 10.8 mph E17.4 kmh E 23.6 mph38.0 kmh 29.92 in1013.2 mb 0.00 in0.0 mm 0.00 in0.0 mm 0.00 in0.0 mm
05:00 AM 51.3°F10.7°C 27.1°F-2.7°C 39% 11.4 mph E18.3 kmh E 25.1 mph40.4 kmh 29.89 in1012.2 mb 0.00 in0.0 mm 0.00 in0.0 mm 0.00 in0.0 mm
05:15 AM 51.6°F10.9°C 28.1°F-2.2°C 40% 10.5 mph E16.9 kmh E 20.4 mph32.8 kmh 29.89 in1012.2 mb 0.00 in0.0 mm 0.00 in0.0 mm 0.00 in0.0 mm
05:30 AM 51.8°F11.0°C 28.2°F-2.1°C 40% 12.2 mph E19.6 kmh E 26.5 mph42.6 kmh 29.89 in1012.2 mb 0.00 in0.0 mm 0.00 in0.0 mm 0.00 in0.0 mm
05:45 AM 52.0°F11.1°C 28.4°F-2.0°C 40% 11.5 mph E18.5 kmh E 22.2 mph35.7 kmh 29.89 in1012.2 mb 0.00 in0.0 mm 0.00 in0.0 mm 0.00 in0.0 mm
06:00 AM 52.2°F11.2°C 28.5°F-1.9°C 40% 14.0 mph E22.5 kmh E 29.0 mph46.7 kmh 29.89 in1012.2 mb 0.00 in0.0 mm 0.00 in0.0 mm 0.00 in0.0 mm
06:15 AM 52.5°F11.4°C 28.9°F-1.7°C 40% 12.7 mph E20.4 kmh E 24.3 mph39.1 kmh 29.89 in1012.2 mb 0.00 in0.0 mm 0.00 in0.0 mm 0.00 in0.0 mm
06:30 AM 53.1°F11.7°C 30.0°F-1.1°C 41% 13.6 mph E21.9 kmh E 27.9 mph44.9 kmh 29.89 in1012.2 mb 0.00 in0.0 mm 0.00 in0.0 mm 0.00 in0.0 mm
06:45 AM 53.8°F12.1°C 30.6°F-0.8°C 41% 13.8 mph E22.2 kmh E 27.2 mph43.8 kmh 29.89 in1012.2 mb 0.00 in0.0 mm 0.00 in0.0 mm 0.00 in0.0 mm
07:00 AM 54.5°F12.5°C 30.6°F-0.8°C 40% 13.8 mph E22.2 kmh E 25.1 mph40.4 kmh 29.89 in1012.2 mb 0.00 in0.0 mm 0.00 in0.0 mm 0.00 in0.0 mm
07:15 AM 55.0°F12.8°C 31.1°F-0.5°C 40% 13.8 mph E22.2 kmh E 31.9 mph51.3 kmh 29.89 in1012.2 mb 0.00 in0.0 mm 0.00 in0.0 mm 0.00 in0.0 mm
07:30 AM 55.9°F13.3°C 31.9°F-0.1°C 40% 14.0 mph E22.5 kmh E 27.2 mph43.8 kmh 29.89 in1012.2 mb 0.00 in0.0 mm 0.00 in0.0 mm 0.00 in0.0 mm
07:45 AM 56.8°F13.8°C 32.8°F0.4°C 40% 13.0 mph E20.9 kmh E 27.6 mph44.4 kmh 29.89 in1012.2 mb 0.00 in0.0 mm 0.00 in0.0 mm 0.00 in0.0 mm
08:00 AM 58.1°F14.5°C 33.9°F1.1°C 40% 14.5 mph E23.3 kmh E 31.9 mph51.3 kmh 29.89 in1012.2 mb 0.00 in0.0 mm 0.00 in0.0 mm 0.00 in0.0 mm
08:15 AM 58.6°F14.8°C 33.7°F0.9°C 39% 12.3 mph E19.8 kmh E 23.3 mph37.5 kmh 29.89 in1012.2 mb 0.00 in0.0 mm 0.00 in0.0 mm 0.00 in0.0 mm
08:30 AM 59.0°F15.0°C 33.4°F0.8°C 38% 17.3 mph E27.8 kmh E 39.4 mph63.4 kmh 29.89 in1012.2 mb 0.00 in0.0 mm 0.00 in0.0 mm 0.00 in0.0 mm
08:45 AM 59.5°F15.3°C 33.9°F1.1°C 38% 15.4 mph E24.8 kmh E 30.8 mph49.6 kmh 29.86 in1011.2 mb 0.00 in0.0 mm 0.00 in0.0 mm 0.00 in0.0 mm
09:00 AM 60.3°F15.7°C 34.5°F1.4°C 38% 16.0 mph E25.7 kmh E 29.0 mph46.7 kmh 29.89 in1012.2 mb 0.00 in0.0 mm 0.00 in0.0 mm 0.00 in0.0 mm
09:15 AM 61.2°F16.2°C 35.3°F1.8°C 38% 15.2 mph E24.5 kmh E 31.9 mph51.3 kmh 29.89 in1012.2 mb 0.00 in0.0 mm 0.00 in0.0 mm 0.00 in0.0 mm
09:30 AM 62.4°F16.9°C 36.5°F2.5°C 38% 18.0 mph E29.0 kmh E 32.6 mph52.5 kmh 29.89 in1012.2 mb 0.00 in0.0 mm 0.00 in0.0 mm 0.00 in0.0 mm
09:45 AM 63.5°F17.5°C 36.7°F2.6°C 37% 19.2 mph E30.9 kmh E 39.0 mph62.8 kmh 29.89 in1012.2 mb 0.00 in0.0 mm 0.00 in0.0 mm 0.00 in0.0 mm
10:00 AM 64.2°F17.9°C 37.4°F3.0°C 37% 18.2 mph E29.3 kmh E 39.0 mph62.8 kmh 29.89 in1012.2 mb 0.00 in0.0 mm 0.00 in0.0 mm 0.00 in0.0 mm
10:15 AM 64.9°F18.3°C 36.6°F2.6°C 35% 19.5 mph ESE31.4 kmh ESE 42.6 mph68.6 kmh 29.89 in1012.2 mb 0.00 in0.0 mm 0.00 in0.0 mm 0.00 in0.0 mm
10:30 AM 65.8°F18.8°C 37.4°F3.0°C 35% 20.3 mph ESE32.7 kmh ESE 40.1 mph64.5 kmh 29.89 in1012.2 mb 0.00 in0.0 mm 0.00 in0.0 mm 0.00 in0.0 mm
10:45 AM 65.8°F18.8°C 37.4°F3.0°C 35% 16.9 mph ESE27.2 kmh ESE 36.1 mph58.1 kmh 29.89 in1012.2 mb 0.00 in0.0 mm 0.00 in0.0 mm 0.00 in0.0 mm
11:05 AM 66.0°F18.9°C 36.8°F2.7°C 34% 18.6 mph S29.9 kmh S 22.9 mph36.9 kmh 29.89 in1012.2 mb 0.00 in0.0 mm 0.00 in0.0 mm 0.00 in0.0 mm
11:06 AM 66.0°F18.9°C 36.8°F2.7°C 34% 18.2 mph SSE29.3 kmh SSE 22.9 mph36.9 kmh 29.89 in1012.2 mb 0.00 in0.0 mm 0.00 in0.0 mm 0.00 in0.0 mm
11:10 AM 66.2°F19.0°C 37.0°F2.8°C 34% 30.2 mph SE48.6 kmh SE 37.2 mph59.9 kmh 29.89 in1012.2 mb 0.00 in0.0 mm 0.00 in0.0 mm 0.00 in0.0 mm
11:11 AM 66.2°F19.0°C 37.0°F2.8°C 34% 31.0 mph SE49.9 kmh SE 39.0 mph62.8 kmh 29.89 in1012.2 mb 0.00 in0.0 mm 0.00 in0.0 mm 0.00 in0.0 mm
11:12 AM 66.2°F19.0°C 36.2°F2.3°C 33% 28.9 mph ESE46.5 kmh ESE 39.0 mph62.8 kmh 29.89 in1012.2 mb 0.00 in0.0 mm 0.00 in0.0 mm 0.00 in0.0 mm
11:13 AM 66.2°F19.0°C 37.0°F2.8°C 34% 31.3 mph ESE50.4 kmh ESE 47.2 mph76.0 kmh 29.89 in1012.2 mb 0.00 in0.0 mm 0.00 in0.0 mm 0.00 in0.0 mm
11:15 AM 66.2°F19.0°C 36.2°F2.3°C 33% 26.7 mph E43.0 kmh E 51.5 mph82.9 kmh 29.89 in1012.2 mb 0.00 in0.0 mm 0.00 in0.0 mm 0.00 in0.0 mm
11:30 AM 65.8°F18.8°C 36.7°F2.6°C 34% 21.1 mph E34.0 kmh E 49.0 mph78.9 kmh 29.89 in1012.2 mb 0.00 in0.0 mm 0.00 in0.0 mm 0.00 in0.0 mm
11:45 AM 66.2°F19.0°C 37.7°F3.2°C 35% 16.4 mph ESE26.4 kmh ESE 39.0 mph62.8 kmh 29.86 in1011.2 mb 0.00 in0.0 mm 0.00 in0.0 mm 0.00 in0.0 mm
12:00 PM 67.6°F19.8°C 38.3°F3.5°C 34% 21.8 mph ESE35.1 kmh ESE 40.8 mph65.7 kmh 29.86 in1011.2 mb 0.00 in0.0 mm 0.00 in0.0 mm 0.00 in0.0 mm
12:15 PM 69.3°F20.7°C 38.9°F3.8°C 33% 23.3 mph ESE37.5 kmh ESE 48.3 mph77.7 kmh 29.86 in1011.2 mb 0.00 in0.0 mm 0.00 in0.0 mm 0.00 in0.0 mm
12:30 PM 70.5°F21.4°C 39.2°F4.0°C 32% 23.0 mph ESE37.0 kmh ESE 48.7 mph78.4 kmh 29.89 in1012.2 mb 0.00 in0.0 mm 0.00 in0.0 mm 0.00 in0.0 mm
12:45 PM 70.9°F21.6°C 38.7°F3.7°C 31% 24.1 mph E38.8 kmh E 52.3 mph84.2 kmh 29.89 in1012.2 mb 0.00 in0.0 mm 0.00 in0.0 mm 0.00 in0.0 mm
01:00 PM 70.7°F21.5°C 38.6°F3.7°C 31% 18.3 mph E29.5 kmh E 45.8 mph73.7 kmh 29.89 in1012.2 mb 0.00 in0.0 mm 0.00 in0.0 mm 0.00 in0.0 mm
01:15 PM 69.3°F20.7°C 38.1°F3.4°C 32% 17.7 mph ESE28.5 kmh ESE 36.1 mph58.1 kmh 29.89 in1012.2 mb 0.00 in0.0 mm 0.00 in0.0 mm 0.00 in0.0 mm
01:30 PM 68.5°F20.3°C 37.5°F3.1°C 32% 13.9 mph ESE22.4 kmh ESE 32.9 mph52.9 kmh 29.89 in1012.2 mb 0.00 in0.0 mm 0.00 in0.0 mm 0.00 in0.0 mm
01:45 PM 68.4°F20.2°C 37.3°F2.9°C 32% 11.9 mph ESE19.2 kmh ESE 26.5 mph42.6 kmh 29.89 in1012.2 mb 0.00 in0.0 mm 0.00 in0.0 mm 0.00 in0.0 mm
02:00 PM 67.8°F19.9°C 37.6°F3.1°C 33% 13.2 mph SE21.2 kmh SE 31.5 mph50.7 kmh 29.89 in1012.2 mb 0.00 in0.0 mm 0.00 in0.0 mm 0.00 in0.0 mm
02:15 PM 67.1°F19.5°C 37.0°F2.8°C 33% 15.1 mph ESE24.3 kmh ESE 31.5 mph50.7 kmh 29.89 in1012.2 mb 0.00 in0.0 mm 0.00 in0.0 mm 0.00 in0.0 mm
02:30 PM 66.4°F19.1°C 36.4°F2.4°C 33% 12.3 mph ESE19.8 kmh ESE 27.2 mph43.8 kmh 29.89 in1012.2 mb 0.00 in0.0 mm 0.00 in0.0 mm 0.00 in0.0 mm
02:45 PM 65.3°F18.5°C 35.4°F1.9°C 33% 12.5 mph SE20.1 kmh SE 28.3 mph45.5 kmh 29.89 in1012.2 mb 0.00 in0.0 mm 0.00 in0.0 mm 0.00 in0.0 mm
03:00 PM 64.2°F17.9°C 35.2°F1.8°C 34% 13.9 mph ESE22.4 kmh ESE 30.1 mph48.4 kmh 29.89 in1012.2 mb 0.00 in0.0 mm 0.00 in0.0 mm 0.00 in0.0 mm
03:15 PM 63.5°F17.5°C 35.3°F1.8°C 35% 12.6 mph ESE20.3 kmh ESE 23.3 mph37.5 kmh 29.86 in1011.2 mb 0.00 in0.0 mm 0.00 in0.0 mm 0.00 in0.0 mm
03:30 PM 63.5°F17.5°C 35.3°F1.8°C 35% 12.1 mph ESE19.5 kmh ESE 27.2 mph43.8 kmh 29.86 in1011.2 mb 0.00 in0.0 mm 0.00 in0.0 mm 0.00 in0.0 mm
03:45 PM 63.1°F17.3°C 35.0°F1.7°C 35% 15.2 mph ESE24.5 kmh ESE 38.3 mph61.6 kmh 29.92 in1013.2 mb 0.00 in0.0 mm 0.00 in0.0 mm 0.00 in0.0 mm
04:00 PM 63.3°F17.4°C 35.9°F2.2°C 36% 14.1 mph E22.7 kmh E 23.6 mph38.0 kmh 29.89 in1012.2 mb 0.00 in0.0 mm 0.00 in0.0 mm 0.00 in0.0 mm
04:15 PM 63.9°F17.7°C 36.4°F2.4°C 36% 13.7 mph E22.0 kmh E 30.8 mph49.6 kmh 29.89 in1012.2 mb 0.00 in0.0 mm 0.00 in0.0 mm 0.00 in0.0 mm
04:30 PM 64.0°F17.8°C 36.5°F2.5°C 36% 12.2 mph E19.6 kmh E 31.1 mph50.1 kmh 29.92 in1013.2 mb 0.00 in0.0 mm 0.00 in0.0 mm 0.00 in0.0 mm
04:45 PM 63.3°F17.4°C 35.9°F2.2°C 36% 13.2 mph E21.2 kmh E 27.2 mph43.8 kmh 29.89 in1012.2 mb 0.00 in0.0 mm 0.00 in0.0 mm 0.00 in0.0 mm
05:00 PM 62.8°F17.1°C 35.4°F1.9°C 36% 9.5 mph E15.3 kmh E 17.2 mph27.7 kmh 29.89 in1012.2 mb 0.00 in0.0 mm 0.00 in0.0 mm 0.00 in0.0 mm
05:15 PM 62.2°F16.8°C 35.6°F2.0°C 37% 11.0 mph E17.7 kmh E 26.1 mph42.0 kmh 29.89 in1012.2 mb 0.00 in0.0 mm 0.00 in0.0 mm 0.00 in0.0 mm
05:30 PM 61.7°F16.5°C 35.1°F1.7°C 37% 11.9 mph E19.2 kmh E 21.1 mph34.0 kmh 29.89 in1012.2 mb 0.00 in0.0 mm 0.00 in0.0 mm 0.00 in0.0 mm
05:45 PM 61.2°F16.2°C 34.7°F1.5°C 37% 10.7 mph E17.2 kmh E 20.4 mph32.8 kmh 29.89 in1012.2 mb 0.00 in0.0 mm 0.00 in0.0 mm 0.00 in0.0 mm
06:00 PM 60.8°F16.0°C 34.3°F1.3°C 37% 11.1 mph E17.9 kmh E 22.9 mph36.9 kmh 29.89 in1012.2 mb 0.00 in0.0 mm 0.00 in0.0 mm 0.00 in0.0 mm
06:15 PM 60.4°F15.8°C 34.0°F1.1°C 37% 10.9 mph E17.5 kmh E 24.7 mph39.8 kmh 29.89 in1012.2 mb 0.00 in0.0 mm 0.00 in0.0 mm 0.00 in0.0 mm
06:30 PM 60.1°F15.6°C 34.4°F1.3°C 38% 9.6 mph E15.4 kmh E 18.3 mph29.5 kmh 29.89 in1012.2 mb 0.00 in0.0 mm 0.00 in0.0 mm 0.00 in0.0 mm
06:45 PM 59.7°F15.4°C 34.0°F1.1°C 38% 9.6 mph E15.4 kmh E 20.8 mph33.5 kmh 29.86 in1011.2 mb 0.00 in0.0 mm 0.00 in0.0 mm 0.00 in0.0 mm
07:01 PM 59.2°F15.1°C 34.2°F1.2°C 39% 6.7 mph E10.8 kmh E 12.9 mph20.8 kmh 29.89 in1012.2 mb 0.00 in0.0 mm 0.00 in0.0 mm 0.00 in0.0 mm
07:05 PM 59.4°F15.2°C 33.7°F0.9°C 38% 4.1 mph E6.6 kmh E 5.0 mph8.0 kmh 29.86 in1011.2 mb 0.00 in0.0 mm 0.00 in0.0 mm 0.00 in0.0 mm
07:06 PM 59.4°F15.2°C 33.7°F0.9°C 38% 5.8 mph E9.3 kmh E 9.3 mph15.0 kmh 29.86 in1011.2 mb 0.00 in0.0 mm 0.00 in0.0 mm 0.00 in0.0 mm
07:15 PM 58.6°F14.8°C 33.7°F0.9°C 39% 8.1 mph E13.0 kmh E 15.4 mph24.8 kmh 29.89 in1012.2 mb 0.00 in0.0 mm 0.00 in0.0 mm 0.00 in0.0 mm
07:30 PM 58.1°F14.5°C 33.9°F1.1°C 40% 8.0 mph E12.9 kmh E 15.7 mph25.3 kmh 29.89 in1012.2 mb 0.00 in0.0 mm 0.00 in0.0 mm 0.00 in0.0 mm
07:45 PM 57.6°F14.2°C 33.4°F0.8°C 40% 9.3 mph E15.0 kmh E 17.2 mph27.7 kmh 29.89 in1012.2 mb 0.00 in0.0 mm 0.00 in0.0 mm 0.00 in0.0 mm
08:00 PM 56.7°F13.7°C 33.2°F0.7°C 41% 7.5 mph E12.1 kmh E 16.8 mph27.0 kmh 29.89 in1012.2 mb 0.00 in0.0 mm 0.00 in0.0 mm 0.00 in0.0 mm
08:15 PM 55.9°F13.3°C 33.2°F0.7°C 42% 7.7 mph E12.4 kmh E 14.0 mph22.5 kmh 29.89 in1012.2 mb 0.00 in0.0 mm 0.00 in0.0 mm 0.00 in0.0 mm
08:30 PM 55.4°F13.0°C 33.3°F0.7°C 43% 6.7 mph E10.8 kmh E 12.9 mph20.8 kmh 29.89 in1012.2 mb 0.00 in0.0 mm 0.00 in0.0 mm 0.00 in0.0 mm
08:45 PM 54.7°F12.6°C 33.2°F0.7°C 44% 5.7 mph E9.2 kmh E 9.7 mph15.6 kmh 29.89 in1012.2 mb 0.00 in0.0 mm 0.00 in0.0 mm 0.00 in0.0 mm
09:00 PM 54.3°F12.4°C 33.4°F0.8°C 45% 5.9 mph E9.5 kmh E 10.7 mph17.2 kmh 29.89 in1012.2 mb 0.00 in0.0 mm 0.00 in0.0 mm 0.00 in0.0 mm
09:15 PM 54.0°F12.2°C 33.6°F0.9°C 46% 6.8 mph E10.9 kmh E 12.2 mph19.6 kmh 29.89 in1012.2 mb 0.00 in0.0 mm 0.00 in0.0 mm 0.00 in0.0 mm
09:30 PM 53.8°F12.1°C 34.0°F1.1°C 47% 7.1 mph E11.4 kmh E 14.0 mph22.5 kmh 29.89 in1012.2 mb 0.00 in0.0 mm 0.00 in0.0 mm 0.00 in0.0 mm
09:45 PM 53.4°F11.9°C 34.2°F1.2°C 48% 7.1 mph E11.4 kmh E 11.8 mph19.0 kmh 29.89 in1012.2 mb 0.00 in0.0 mm 0.00 in0.0 mm 0.00 in0.0 mm
10:00 PM 53.2°F11.8°C 34.6°F1.4°C 49% 5.1 mph E8.2 kmh E 11.8 mph19.0 kmh 29.89 in1012.2 mb 0.00 in0.0 mm 0.00 in0.0 mm 0.00 in0.0 mm
10:15 PM 53.1°F11.7°C 34.9°F1.6°C 50% 4.2 mph E6.8 kmh E 10.7 mph17.2 kmh 29.89 in1012.2 mb 0.00 in0.0 mm 0.00 in0.0 mm 0.00 in0.0 mm
10:30 PM 52.7°F11.5°C 35.1°F1.7°C 51% 4.5 mph E7.2 kmh E 12.5 mph20.1 kmh 29.89 in1012.2 mb 0.00 in0.0 mm 0.00 in0.0 mm 0.00 in0.0 mm
10:45 PM 52.3°F11.3°C 34.7°F1.5°C 51% 2.5 mph ENE4.0 kmh ENE 7.5 mph12.1 kmh 29.89 in1012.2 mb 0.00 in0.0 mm 0.00 in0.0 mm 0.00 in0.0 mm
11:00 PM 52.2°F11.2°C 35.1°F1.7°C 52% 3.5 mph E5.6 kmh E 8.9 mph14.3 kmh 29.89 in1012.2 mb 0.00 in0.0 mm 0.00 in0.0 mm 0.00 in0.0 mm
11:15 PM 52.0°F11.1°C 35.4°F1.9°C 53% 3.1 mph E5.0 kmh E 9.3 mph15.0 kmh 29.89 in1012.2 mb 0.00 in0.0 mm 0.00 in0.0 mm 0.00 in0.0 mm
11:30 PM 51.8°F11.0°C 35.7°F2.1°C 54% 1.4 mph E2.3 kmh E 7.5 mph12.1 kmh 29.89 in1012.2 mb 0.00 in0.0 mm 0.00 in0.0 mm 0.00 in0.0 mm
11:45 PM 51.6°F10.9°C 35.5°F1.9°C 54% 5.3 mph E8.5 kmh E 8.9 mph14.3 kmh 29.89 in1012.2 mb 0.00 in0.0 mm 0.00 in0.0 mm 0.00 in0.0 mm